sensor_id;sensor_type;location;lat;lon;timestamp;temperature;humidity
20125;DHT22;10223;50.862;4.360;2023-02-01T00:01:06;7.70;99.90
20125;DHT22;10223;50.862;4.360;2023-02-01T00:03:33;7.70;99.90
20125;DHT22;10223;50.862;4.360;2023-02-01T00:06:00;7.80;99.90
20125;DHT22;10223;50.862;4.360;2023-02-01T00:08:27;7.80;99.90
20125;DHT22;10223;50.862;4.360;2023-02-01T00:11:14;7.70;99.90
20125;DHT22;10223;50.862;4.360;2023-02-01T00:13:44;7.70;99.90
20125;DHT22;10223;50.862;4.360;2023-02-01T00:16:48;7.80;99.90
20125;DHT22;10223;50.862;4.360;2023-02-01T00:19:23;7.80;99.90
20125;DHT22;10223;50.862;4.360;2023-02-01T00:21:50;7.70;99.90
20125;DHT22;10223;50.862;4.360;2023-02-01T00:24:17;7.80;99.90
20125;DHT22;10223;50.862;4.360;2023-02-01T00:26:45;7.70;99.90
20125;DHT22;10223;50.862;4.360;2023-02-01T00:29:14;7.70;99.90
20125;DHT22;10223;50.862;4.360;2023-02-01T00:31:42;7.70;99.90
20125;DHT22;10223;50.862;4.360;2023-02-01T00:34:11;7.70;99.90
20125;DHT22;10223;50.862;4.360;2023-02-01T00:36:38;7.70;99.90
20125;DHT22;10223;50.862;4.360;2023-02-01T00:39:05;7.70;99.90
20125;DHT22;10223;50.862;4.360;2023-02-01T00:41:32;7.80;99.90
20125;DHT22;10223;50.862;4.360;2023-02-01T00:44:01;7.80;99.90
20125;DHT22;10223;50.862;4.360;2023-02-01T00:46:28;7.80;99.90
20125;DHT22;10223;50.862;4.360;2023-02-01T00:48:56;7.70;99.90
20125;DHT22;10223;50.862;4.360;2023-02-01T00:51:24;7.70;99.90
20125;DHT22;10223;50.862;4.360;2023-02-01T00:53:52;7.70;99.90
20125;DHT22;10223;50.862;4.360;2023-02-01T00:56:20;7.70;99.90
20125;DHT22;10223;50.862;4.360;2023-02-01T00:58:54;7.80;99.90
20125;DHT22;10223;50.862;4.360;2023-02-01T01:01:27;7.70;99.90
20125;DHT22;10223;50.862;4.360;2023-02-01T01:03:56;7.70;99.90
20125;DHT22;10223;50.862;4.360;2023-02-01T01:06:25;7.70;99.90
20125;DHT22;10223;50.862;4.360;2023-02-01T01:08:53;7.90;99.90
20125;DHT22;10223;50.862;4.360;2023-02-01T01:11:23;7.80;99.90
20125;DHT22;10223;50.862;4.360;2023-02-01T01:13:51;7.80;99.90
20125;DHT22;10223;50.862;4.360;2023-02-01T01:16:20;7.70;99.90
20125;DHT22;10223;50.862;4.360;2023-02-01T01:18:49;7.80;99.90
20125;DHT22;10223;50.862;4.360;2023-02-01T01:21:17;7.60;99.90
20125;DHT22;10223;50.862;4.360;2023-02-01T01:23:45;7.60;99.90
20125;DHT22;10223;50.862;4.360;2023-02-01T01:26:14;7.60;99.90
20125;DHT22;10223;50.862;4.360;2023-02-01T01:28:41;7.60;99.90
20125;DHT22;10223;50.862;4.360;2023-02-01T01:31:09;7.60;99.90
20125;DHT22;10223;50.862;4.360;2023-02-01T01:33:38;7.60;99.90
20125;DHT22;10223;50.862;4.360;2023-02-01T01:36:07;7.60;99.90
20125;DHT22;10223;50.862;4.360;2023-02-01T01:38:37;7.60;99.90
20125;DHT22;10223;50.862;4.360;2023-02-01T01:41:04;7.60;99.90
20125;DHT22;10223;50.862;4.360;2023-02-01T01:43:48;7.70;99.90
20125;DHT22;10223;50.862;4.360;2023-02-01T01:46:16;7.60;99.90
20125;DHT22;10223;50.862;4.360;2023-02-01T01:48:44;7.60;99.90
20125;DHT22;10223;50.862;4.360;2023-02-01T01:51:14;7.70;99.90
20125;DHT22;10223;50.862;4.360;2023-02-01T01:53:46;7.70;99.90
20125;DHT22;10223;50.862;4.360;2023-02-01T01:56:18;7.60;99.90
20125;DHT22;10223;50.862;4.360;2023-02-01T01:58:45;7.60;99.90
20125;DHT22;10223;50.862;4.360;2023-02-01T02:01:12;7.50;99.90
20125;DHT22;10223;50.862;4.360;2023-02-01T02:03:41;7.50;99.90
20125;DHT22;10223;50.862;4.360;2023-02-01T02:06:17;7.50;99.90
20125;DHT22;10223;50.862;4.360;2023-02-01T02:08:47;7.50;99.90
20125;DHT22;10223;50.862;4.360;2023-02-01T02:11:16;7.60;99.90
20125;DHT22;10223;50.862;4.360;2023-02-01T02:13:47;7.60;99.90
20125;DHT22;10223;50.862;4.360;2023-02-01T02:16:26;7.50;99.90
20125;DHT22;10223;50.862;4.360;2023-02-01T02:19:22;7.50;99.90
20125;DHT22;10223;50.862;4.360;2023-02-01T02:22:13;7.40;99.90
20125;DHT22;10223;50.862;4.360;2023-02-01T02:27:51;7.40;99.90
20125;DHT22;10223;50.862;4.360;2023-02-01T02:30:41;7.40;99.90
20125;DHT22;10223;50.862;4.360;2023-02-01T02:33:33;7.40;99.90
20125;DHT22;10223;50.862;4.360;2023-02-01T02:36:10;7.40;99.90
20125;DHT22;10223;50.862;4.360;2023-02-01T02:38:44;7.40;99.90
20125;DHT22;10223;50.862;4.360;2023-02-01T02:41:17;7.40;99.90
20125;DHT22;10223;50.862;4.360;2023-02-01T02:44:11;7.40;99.90
20125;DHT22;10223;50.862;4.360;2023-02-01T02:47:02;7.40;99.90
20125;DHT22;10223;50.862;4.360;2023-02-01T02:49:54;7.50;99.90
20125;DHT22;10223;50.862;4.360;2023-02-01T02:52:41;7.50;99.90
20125;DHT22;10223;50.862;4.360;2023-02-01T02:55:30;7.40;99.90
20125;DHT22;10223;50.862;4.360;2023-02-01T02:58:03;7.40;99.90
20125;DHT22;10223;50.862;4.360;2023-02-01T03:00:48;7.40;99.90
20125;DHT22;10223;50.862;4.360;2023-02-01T03:03:36;7.40;99.90
20125;DHT22;10223;50.862;4.360;2023-02-01T03:06:23;7.40;99.90
20125;DHT22;10223;50.862;4.360;2023-02-01T03:08:51;7.40;99.90
20125;DHT22;10223;50.862;4.360;2023-02-01T03:11:20;7.30;99.90
20125;DHT22;10223;50.862;4.360;2023-02-01T03:13:51;7.20;99.90
20125;DHT22;10223;50.862;4.360;2023-02-01T03:16:21;7.20;99.90
20125;DHT22;10223;50.862;4.360;2023-02-01T03:18:55;7.20;99.90
20125;DHT22;10223;50.862;4.360;2023-02-01T03:21:28;7.20;99.90
20125;DHT22;10223;50.862;4.360;2023-02-01T03:23:58;7.10;99.90
20125;DHT22;10223;50.862;4.360;2023-02-01T03:26:28;7.10;99.90
20125;DHT22;10223;50.862;4.360;2023-02-01T03:29:02;7.10;99.90
20125;DHT22;10223;50.862;4.360;2023-02-01T03:31:32;7.10;99.90
20125;DHT22;10223;50.862;4.360;2023-02-01T03:33:59;7.10;99.90
20125;DHT22;10223;50.862;4.360;2023-02-01T03:36:31;7.10;99.90
20125;DHT22;10223;50.862;4.360;2023-02-01T03:39:04;7.10;99.90
20125;DHT22;10223;50.862;4.360;2023-02-01T03:41:37;7.10;99.90
20125;DHT22;10223;50.862;4.360;2023-02-01T03:44:12;7.10;99.90
20125;DHT22;10223;50.862;4.360;2023-02-01T03:46:43;7.10;99.90
20125;DHT22;10223;50.862;4.360;2023-02-01T03:49:16;7.00;99.90
20125;DHT22;10223;50.862;4.360;2023-02-01T03:51:47;6.90;99.90
20125;DHT22;10223;50.862;4.360;2023-02-01T03:54:16;7.00;99.90
20125;DHT22;10223;50.862;4.360;2023-02-01T03:56:46;6.90;99.90
20125;DHT22;10223;50.862;4.360;2023-02-01T03:59:14;6.90;99.90
20125;DHT22;10223;50.862;4.360;2023-02-01T04:01:42;6.80;99.90
20125;DHT22;10223;50.862;4.360;2023-02-01T04:04:09;6.80;99.90
20125;DHT22;10223;50.862;4.360;2023-02-01T04:06:36;6.80;99.90
20125;DHT22;10223;50.862;4.360;2023-02-01T04:09:04;6.80;99.90
20125;DHT22;10223;50.862;4.360;2023-02-01T04:11:31;6.80;99.90
20125;DHT22;10223;50.862;4.360;2023-02-01T04:13:58;6.90;99.90
20125;DHT22;10223;50.862;4.360;2023-02-01T04:16:29;6.80;99.90
20125;DHT22;10223;50.862;4.360;2023-02-01T04:18:56;6.70;99.90
20125;DHT22;10223;50.862;4.360;2023-02-01T04:21:24;6.70;99.90
20125;DHT22;10223;50.862;4.360;2023-02-01T04:23:52;6.70;99.90
20125;DHT22;10223;50.862;4.360;2023-02-01T04:26:20;6.70;99.90
20125;DHT22;10223;50.862;4.360;2023-02-01T04:28:48;6.80;99.90
20125;DHT22;10223;50.862;4.360;2023-02-01T04:31:15;6.70;99.90
20125;DHT22;10223;50.862;4.360;2023-02-01T04:33:42;6.70;99.90
20125;DHT22;10223;50.862;4.360;2023-02-01T04:36:09;6.60;99.90
20125;DHT22;10223;50.862;4.360;2023-02-01T04:38:36;6.60;99.90
20125;DHT22;10223;50.862;4.360;2023-02-01T04:41:04;6.60;99.90
20125;DHT22;10223;50.862;4.360;2023-02-01T04:43:32;6.60;99.90
20125;DHT22;10223;50.862;4.360;2023-02-01T04:45:59;6.50;99.90
20125;DHT22;10223;50.862;4.360;2023-02-01T04:48:26;6.60;99.90
20125;DHT22;10223;50.862;4.360;2023-02-01T04:50:53;6.50;99.90
20125;DHT22;10223;50.862;4.360;2023-02-01T04:53:20;6.50;99.90
20125;DHT22;10223;50.862;4.360;2023-02-01T04:55:48;6.50;99.90
20125;DHT22;10223;50.862;4.360;2023-02-01T04:58:16;6.40;99.90
20125;DHT22;10223;50.862;4.360;2023-02-01T05:00:44;6.50;99.90
20125;DHT22;10223;50.862;4.360;2023-02-01T05:03:11;6.40;99.90
20125;DHT22;10223;50.862;4.360;2023-02-01T05:05:38;6.50;99.90
20125;DHT22;10223;50.862;4.360;2023-02-01T05:08:05;6.40;99.90
20125;DHT22;10223;50.862;4.360;2023-02-01T05:10:32;6.40;99.90
20125;DHT22;10223;50.862;4.360;2023-02-01T05:12:59;6.30;99.90
20125;DHT22;10223;50.862;4.360;2023-02-01T05:15:45;6.20;99.90
20125;DHT22;10223;50.862;4.360;2023-02-01T05:18:12;6.20;99.90
20125;DHT22;10223;50.862;4.360;2023-02-01T05:20:39;6.20;99.90
20125;DHT22;10223;50.862;4.360;2023-02-01T05:23:05;6.20;99.90
20125;DHT22;10223;50.862;4.360;2023-02-01T05:25:32;6.10;99.90
20125;DHT22;10223;50.862;4.360;2023-02-01T05:27:59;6.10;99.90
20125;DHT22;10223;50.862;4.360;2023-02-01T05:30:26;6.10;99.90
20125;DHT22;10223;50.862;4.360;2023-02-01T05:32:55;6.00;99.90
20125;DHT22;10223;50.862;4.360;2023-02-01T05:35:22;6.00;99.90
20125;DHT22;10223;50.862;4.360;2023-02-01T05:37:49;6.00;99.90
20125;DHT22;10223;50.862;4.360;2023-02-01T05:40:16;5.90;99.90
20125;DHT22;10223;50.862;4.360;2023-02-01T05:42:43;5.90;99.90
20125;DHT22;10223;50.862;4.360;2023-02-01T05:45:10;5.90;99.90
20125;DHT22;10223;50.862;4.360;2023-02-01T05:47:37;5.90;99.90
20125;DHT22;10223;50.862;4.360;2023-02-01T05:50:06;5.70;99.90
20125;DHT22;10223;50.862;4.360;2023-02-01T05:52:33;5.70;99.90
20125;DHT22;10223;50.862;4.360;2023-02-01T05:55:00;5.70;99.90
20125;DHT22;10223;50.862;4.360;2023-02-01T05:57:27;5.70;99.90
20125;DHT22;10223;50.862;4.360;2023-02-01T05:59:56;5.60;99.90
20125;DHT22;10223;50.862;4.360;2023-02-01T06:02:23;5.50;99.90
20125;DHT22;10223;50.862;4.360;2023-02-01T06:04:51;5.50;99.90
20125;DHT22;10223;50.862;4.360;2023-02-01T06:07:19;5.70;99.90
20125;DHT22;10223;50.862;4.360;2023-02-01T06:09:47;5.60;99.90
20125;DHT22;10223;50.862;4.360;2023-02-01T06:12:14;5.50;99.90
20125;DHT22;10223;50.862;4.360;2023-02-01T06:14:41;5.60;99.90
20125;DHT22;10223;50.862;4.360;2023-02-01T06:17:08;5.50;99.90
20125;DHT22;10223;50.862;4.360;2023-02-01T06:19:35;5.50;99.90
20125;DHT22;10223;50.862;4.360;2023-02-01T06:22:02;5.50;99.90
20125;DHT22;10223;50.862;4.360;2023-02-01T06:24:33;5.50;99.90
20125;DHT22;10223;50.862;4.360;2023-02-01T06:27:00;5.50;99.90
20125;DHT22;10223;50.862;4.360;2023-02-01T06:29:27;5.60;99.90
20125;DHT22;10223;50.862;4.360;2023-02-01T06:31:54;5.50;99.90
20125;DHT22;10223;50.862;4.360;2023-02-01T06:34:20;5.60;99.90
20125;DHT22;10223;50.862;4.360;2023-02-01T06:36:49;5.60;99.90
20125;DHT22;10223;50.862;4.360;2023-02-01T06:39:16;5.60;99.90
20125;DHT22;10223;50.862;4.360;2023-02-01T06:41:46;5.60;99.90
20125;DHT22;10223;50.862;4.360;2023-02-01T06:44:13;5.80;99.90
20125;DHT22;10223;50.862;4.360;2023-02-01T06:46:40;5.60;99.90
20125;DHT22;10223;50.862;4.360;2023-02-01T06:49:07;5.60;99.90
20125;DHT22;10223;50.862;4.360;2023-02-01T06:51:34;5.70;99.90
20125;DHT22;10223;50.862;4.360;2023-02-01T06:54:01;5.70;99.90
20125;DHT22;10223;50.862;4.360;2023-02-01T06:56:28;5.70;99.90
20125;DHT22;10223;50.862;4.360;2023-02-01T06:58:58;5.70;99.90
20125;DHT22;10223;50.862;4.360;2023-02-01T07:01:26;5.60;99.90
20125;DHT22;10223;50.862;4.360;2023-02-01T07:03:53;5.60;99.90
20125;DHT22;10223;50.862;4.360;2023-02-01T07:06:20;5.60;99.90
20125;DHT22;10223;50.862;4.360;2023-02-01T07:08:47;5.50;99.90
20125;DHT22;10223;50.862;4.360;2023-02-01T07:11:16;5.50;99.90
20125;DHT22;10223;50.862;4.360;2023-02-01T07:13:44;5.50;99.90
20125;DHT22;10223;50.862;4.360;2023-02-01T07:16:14;5.50;99.90
20125;DHT22;10223;50.862;4.360;2023-02-01T07:18:41;5.50;99.90
20125;DHT22;10223;50.862;4.360;2023-02-01T07:21:08;5.50;99.90
20125;DHT22;10223;50.862;4.360;2023-02-01T07:23:35;5.50;99.90
20125;DHT22;10223;50.862;4.360;2023-02-01T07:26:05;5.40;99.90
20125;DHT22;10223;50.862;4.360;2023-02-01T07:28:34;5.60;99.90
20125;DHT22;10223;50.862;4.360;2023-02-01T07:31:05;5.40;99.90
20125;DHT22;10223;50.862;4.360;2023-02-01T07:33:34;5.50;99.90
20125;DHT22;10223;50.862;4.360;2023-02-01T07:36:02;5.40;99.90
20125;DHT22;10223;50.862;4.360;2023-02-01T07:38:30;5.50;99.90
20125;DHT22;10223;50.862;4.360;2023-02-01T07:40:57;5.40;99.90
20125;DHT22;10223;50.862;4.360;2023-02-01T07:43:25;5.50;99.90
20125;DHT22;10223;50.862;4.360;2023-02-01T07:45:53;5.50;99.90
20125;DHT22;10223;50.862;4.360;2023-02-01T07:48:20;5.50;99.90
20125;DHT22;10223;50.862;4.360;2023-02-01T07:50:57;5.50;99.90
20125;DHT22;10223;50.862;4.360;2023-02-01T07:53:24;5.50;99.90
20125;DHT22;10223;50.862;4.360;2023-02-01T07:55:51;5.50;99.90
20125;DHT22;10223;50.862;4.360;2023-02-01T07:58:17;5.50;99.90
20125;DHT22;10223;50.862;4.360;2023-02-01T08:00:44;5.50;99.90
20125;DHT22;10223;50.862;4.360;2023-02-01T08:03:29;5.60;99.90
20125;DHT22;10223;50.862;4.360;2023-02-01T08:05:57;5.60;99.90
20125;DHT22;10223;50.862;4.360;2023-02-01T08:08:24;5.60;99.90
20125;DHT22;10223;50.862;4.360;2023-02-01T08:10:56;5.70;99.90
20125;DHT22;10223;50.862;4.360;2023-02-01T08:13:23;5.60;99.90
20125;DHT22;10223;50.862;4.360;2023-02-01T08:15:50;5.60;99.90
20125;DHT22;10223;50.862;4.360;2023-02-01T08:18:17;5.70;99.90
20125;DHT22;10223;50.862;4.360;2023-02-01T08:20:44;5.80;99.90
20125;DHT22;10223;50.862;4.360;2023-02-01T08:23:14;5.80;99.90
20125;DHT22;10223;50.862;4.360;2023-02-01T08:25:41;5.80;99.90
20125;DHT22;10223;50.862;4.360;2023-02-01T08:28:09;5.80;99.90
20125;DHT22;10223;50.862;4.360;2023-02-01T08:30:36;5.80;99.90
20125;DHT22;10223;50.862;4.360;2023-02-01T08:33:03;5.80;99.90
20125;DHT22;10223;50.862;4.360;2023-02-01T08:35:31;5.80;99.90
20125;DHT22;10223;50.862;4.360;2023-02-01T08:37:58;5.80;99.90
20125;DHT22;10223;50.862;4.360;2023-02-01T08:40:27;5.90;99.90
20125;DHT22;10223;50.862;4.360;2023-02-01T08:42:54;5.90;99.90
20125;DHT22;10223;50.862;4.360;2023-02-01T08:45:23;6.00;99.90
20125;DHT22;10223;50.862;4.360;2023-02-01T08:47:52;6.10;99.90
20125;DHT22;10223;50.862;4.360;2023-02-01T08:50:20;6.10;99.90
20125;DHT22;10223;50.862;4.360;2023-02-01T08:52:47;6.10;99.90
20125;DHT22;10223;50.862;4.360;2023-02-01T08:55:15;6.10;99.90
20125;DHT22;10223;50.862;4.360;2023-02-01T08:57:43;6.10;99.90
20125;DHT22;10223;50.862;4.360;2023-02-01T09:00:13;6.20;99.90
20125;DHT22;10223;50.862;4.360;2023-02-01T09:02:40;6.40;99.90
20125;DHT22;10223;50.862;4.360;2023-02-01T09:05:08;6.50;99.90
20125;DHT22;10223;50.862;4.360;2023-02-01T09:07:36;6.50;99.90
20125;DHT22;10223;50.862;4.360;2023-02-01T09:10:03;6.60;99.90
20125;DHT22;10223;50.862;4.360;2023-02-01T09:12:31;6.70;99.90
20125;DHT22;10223;50.862;4.360;2023-02-01T09:15:00;6.70;99.90
20125;DHT22;10223;50.862;4.360;2023-02-01T09:17:28;6.80;99.90
20125;DHT22;10223;50.862;4.360;2023-02-01T09:19:55;7.20;99.90
20125;DHT22;10223;50.862;4.360;2023-02-01T09:22:22;7.30;99.90
20125;DHT22;10223;50.862;4.360;2023-02-01T09:24:49;7.50;99.90
20125;DHT22;10223;50.862;4.360;2023-02-01T09:27:16;7.70;99.90
20125;DHT22;10223;50.862;4.360;2023-02-01T09:29:43;8.00;99.90
20125;DHT22;10223;50.862;4.360;2023-02-01T09:32:12;8.20;99.90
20125;DHT22;10223;50.862;4.360;2023-02-01T09:34:38;8.20;99.90
20125;DHT22;10223;50.862;4.360;2023-02-01T09:37:05;8.10;99.90
20125;DHT22;10223;50.862;4.360;2023-02-01T09:39:32;8.20;99.90
20125;DHT22;10223;50.862;4.360;2023-02-01T09:42:07;8.70;99.90
20125;DHT22;10223;50.862;4.360;2023-02-01T09:44:57;8.80;99.90
20125;DHT22;10223;50.862;4.360;2023-02-01T09:47:27;9.10;99.90
20125;DHT22;10223;50.862;4.360;2023-02-01T09:50:02;9.00;99.90
20125;DHT22;10223;50.862;4.360;2023-02-01T09:52:35;9.10;99.90
20125;DHT22;10223;50.862;4.360;2023-02-01T09:55:05;9.20;99.90
20125;DHT22;10223;50.862;4.360;2023-02-01T09:57:41;9.30;99.90
20125;DHT22;10223;50.862;4.360;2023-02-01T10:00:17;9.20;99.90
20125;DHT22;10223;50.862;4.360;2023-02-01T10:02:46;9.30;99.90
20125;DHT22;10223;50.862;4.360;2023-02-01T10:05:16;9.40;99.90
20125;DHT22;10223;50.862;4.360;2023-02-01T10:07:47;9.50;99.90
20125;DHT22;10223;50.862;4.360;2023-02-01T10:10:23;9.40;99.90
20125;DHT22;10223;50.862;4.360;2023-02-01T10:13:17;9.80;99.90
20125;DHT22;10223;50.862;4.360;2023-02-01T10:16:04;9.70;99.90
20125;DHT22;10223;50.862;4.360;2023-02-01T10:21:51;9.80;99.90
20125;DHT22;10223;50.862;4.360;2023-02-01T10:24:37;10.10;99.90
20125;DHT22;10223;50.862;4.360;2023-02-01T10:27:12;9.90;99.90
20125;DHT22;10223;50.862;4.360;2023-02-01T10:29:42;9.90;99.90
20125;DHT22;10223;50.862;4.360;2023-02-01T10:32:13;10.10;99.90
20125;DHT22;10223;50.862;4.360;2023-02-01T10:34:41;10.20;99.90
20125;DHT22;10223;50.862;4.360;2023-02-01T10:37:24;10.30;99.90
20125;DHT22;10223;50.862;4.360;2023-02-01T10:39:54;10.30;99.90
20125;DHT22;10223;50.862;4.360;2023-02-01T10:42:25;10.30;99.90
20125;DHT22;10223;50.862;4.360;2023-02-01T10:44:54;10.40;99.90
20125;DHT22;10223;50.862;4.360;2023-02-01T10:47:22;10.70;99.90
20125;DHT22;10223;50.862;4.360;2023-02-01T10:49:55;10.60;99.90
20125;DHT22;10223;50.862;4.360;2023-02-01T10:52:34;10.80;99.90
20125;DHT22;10223;50.862;4.360;2023-02-01T10:55:29;11.00;99.90
20125;DHT22;10223;50.862;4.360;2023-02-01T10:57:58;11.30;99.90
20125;DHT22;10223;50.862;4.360;2023-02-01T11:00:25;11.50;99.90
20125;DHT22;10223;50.862;4.360;2023-02-01T11:02:53;11.30;99.90
20125;DHT22;10223;50.862;4.360;2023-02-01T11:05:22;11.30;99.90
20125;DHT22;10223;50.862;4.360;2023-02-01T11:07:53;11.00;99.90
20125;DHT22;10223;50.862;4.360;2023-02-01T11:10:36;10.90;99.90
20125;DHT22;10223;50.862;4.360;2023-02-01T11:13:04;10.70;99.90
20125;DHT22;10223;50.862;4.360;2023-02-01T11:15:31;10.60;99.90
20125;DHT22;10223;50.862;4.360;2023-02-01T11:18:14;10.60;99.90
20125;DHT22;10223;50.862;4.360;2023-02-01T11:20:42;10.70;99.90
20125;DHT22;10223;50.862;4.360;2023-02-01T11:23:15;10.60;99.90
20125;DHT22;10223;50.862;4.360;2023-02-01T11:25:49;10.40;99.90
20125;DHT22;10223;50.862;4.360;2023-02-01T11:28:17;10.30;99.90
20125;DHT22;10223;50.862;4.360;2023-02-01T11:30:46;10.20;99.90
20125;DHT22;10223;50.862;4.360;2023-02-01T11:33:17;10.30;99.90
20125;DHT22;10223;50.862;4.360;2023-02-01T11:35:46;10.20;99.90
20125;DHT22;10223;50.862;4.360;2023-02-01T11:38:21;10.10;99.90
20125;DHT22;10223;50.862;4.360;2023-02-01T11:40:49;10.00;99.90
20125;DHT22;10223;50.862;4.360;2023-02-01T11:43:22;10.20;99.90
20125;DHT22;10223;50.862;4.360;2023-02-01T11:45:58;10.10;99.90
20125;DHT22;10223;50.862;4.360;2023-02-01T11:48:27;10.00;99.90
20125;DHT22;10223;50.862;4.360;2023-02-01T11:51:04;9.90;99.90
20125;DHT22;10223;50.862;4.360;2023-02-01T11:53:53;9.90;99.90
20125;DHT22;10223;50.862;4.360;2023-02-01T11:56:32;9.80;99.90
20125;DHT22;10223;50.862;4.360;2023-02-01T11:59:19;10.00;99.90
20125;DHT22;10223;50.862;4.360;2023-02-01T12:02:01;10.20;99.90
20125;DHT22;10223;50.862;4.360;2023-02-01T12:08:00;10.50;99.90
20125;DHT22;10223;50.862;4.360;2023-02-01T12:10:40;10.50;99.90
20125;DHT22;10223;50.862;4.360;2023-02-01T12:13:19;10.50;99.90
20125;DHT22;10223;50.862;4.360;2023-02-01T12:16:05;10.40;99.90
20125;DHT22;10223;50.862;4.360;2023-02-01T12:18:53;10.30;99.90
20125;DHT22;10223;50.862;4.360;2023-02-01T12:21:36;10.60;99.90
20125;DHT22;10223;50.862;4.360;2023-02-01T12:24:25;10.90;99.90
20125;DHT22;10223;50.862;4.360;2023-02-01T12:27:10;11.20;99.90
20125;DHT22;10223;50.862;4.360;2023-02-01T12:30:02;11.30;99.90
20125;DHT22;10223;50.862;4.360;2023-02-01T12:32:53;11.30;99.90
20125;DHT22;10223;50.862;4.360;2023-02-01T12:35:44;11.60;99.90
20125;DHT22;10223;50.862;4.360;2023-02-01T12:41:18;11.70;99.90
20125;DHT22;10223;50.862;4.360;2023-02-01T12:43:55;11.70;99.90
20125;DHT22;10223;50.862;4.360;2023-02-01T12:46:30;12.00;99.90
20125;DHT22;10223;50.862;4.360;2023-02-01T12:49:01;12.10;99.90
20125;DHT22;10223;50.862;4.360;2023-02-01T12:51:34;12.00;99.90
20125;DHT22;10223;50.862;4.360;2023-02-01T12:54:09;12.20;99.90
20125;DHT22;10223;50.862;4.360;2023-02-01T12:56:42;12.20;99.90
20125;DHT22;10223;50.862;4.360;2023-02-01T12:59:17;12.30;99.90
20125;DHT22;10223;50.862;4.360;2023-02-01T13:01:49;12.30;99.90
20125;DHT22;10223;50.862;4.360;2023-02-01T13:04:26;12.10;99.90
20125;DHT22;10223;50.862;4.360;2023-02-01T13:07:00;11.90;99.90
20125;DHT22;10223;50.862;4.360;2023-02-01T13:09:33;11.90;99.90
20125;DHT22;10223;50.862;4.360;2023-02-01T13:12:11;11.90;99.90
20125;DHT22;10223;50.862;4.360;2023-02-01T13:14:44;11.70;99.90
20125;DHT22;10223;50.862;4.360;2023-02-01T13:17:16;11.60;99.90
20125;DHT22;10223;50.862;4.360;2023-02-01T13:19:48;11.40;99.90
20125;DHT22;10223;50.862;4.360;2023-02-01T13:22:20;11.60;99.90
20125;DHT22;10223;50.862;4.360;2023-02-01T13:24:50;11.80;99.90
20125;DHT22;10223;50.862;4.360;2023-02-01T13:27:18;11.90;99.90
20125;DHT22;10223;50.862;4.360;2023-02-01T13:29:55;11.80;99.90
20125;DHT22;10223;50.862;4.360;2023-02-01T13:32:54;11.70;99.90
20125;DHT22;10223;50.862;4.360;2023-02-01T13:38:43;11.70;99.90
20125;DHT22;10223;50.862;4.360;2023-02-01T13:41:24;12.20;99.90
20125;DHT22;10223;50.862;4.360;2023-02-01T13:43:55;12.20;99.90
20125;DHT22;10223;50.862;4.360;2023-02-01T13:46:26;12.00;99.90
20125;DHT22;10223;50.862;4.360;2023-02-01T13:48:55;12.00;99.90
20125;DHT22;10223;50.862;4.360;2023-02-01T13:51:37;12.00;99.90
20125;DHT22;10223;50.862;4.360;2023-02-01T13:54:16;12.10;99.90
20125;DHT22;10223;50.862;4.360;2023-02-01T13:56:50;12.00;99.90
20125;DHT22;10223;50.862;4.360;2023-02-01T13:59:50;12.00;99.90
20125;DHT22;10223;50.862;4.360;2023-02-01T14:02:47;12.10;99.90
20125;DHT22;10223;50.862;4.360;2023-02-01T14:08:22;12.10;99.90
20125;DHT22;10223;50.862;4.360;2023-02-01T14:10:52;12.40;99.90
20125;DHT22;10223;50.862;4.360;2023-02-01T14:13:28;12.30;99.90
20125;DHT22;10223;50.862;4.360;2023-02-01T14:16:15;12.20;99.90
20125;DHT22;10223;50.862;4.360;2023-02-01T14:19:00;12.10;99.90
20125;DHT22;10223;50.862;4.360;2023-02-01T14:21:30;12.00;99.90
20125;DHT22;10223;50.862;4.360;2023-02-01T14:24:00;11.90;99.90
20125;DHT22;10223;50.862;4.360;2023-02-01T14:26:42;11.60;99.90
20125;DHT22;10223;50.862;4.360;2023-02-01T14:29:24;11.30;99.90
20125;DHT22;10223;50.862;4.360;2023-02-01T14:32:01;11.10;99.90
20125;DHT22;10223;50.862;4.360;2023-02-01T14:34:39;10.80;99.90
20125;DHT22;10223;50.862;4.360;2023-02-01T14:37:22;10.80;99.90
20125;DHT22;10223;50.862;4.360;2023-02-01T14:39:55;10.80;99.90
20125;DHT22;10223;50.862;4.360;2023-02-01T14:42:25;10.80;99.90
20125;DHT22;10223;50.862;4.360;2023-02-01T14:44:55;10.70;99.90
20125;DHT22;10223;50.862;4.360;2023-02-01T14:47:33;10.70;99.90
20125;DHT22;10223;50.862;4.360;2023-02-01T14:50:30;10.60;99.90
20125;DHT22;10223;50.862;4.360;2023-02-01T14:53:19;10.50;99.90
20125;DHT22;10223;50.862;4.360;2023-02-01T14:55:51;10.50;99.90
20125;DHT22;10223;50.862;4.360;2023-02-01T14:58:32;10.50;99.90
20125;DHT22;10223;50.862;4.360;2023-02-01T15:01:05;10.50;99.90
20125;DHT22;10223;50.862;4.360;2023-02-01T15:03:43;10.60;99.90
20125;DHT22;10223;50.862;4.360;2023-02-01T15:06:23;10.60;99.90
20125;DHT22;10223;50.862;4.360;2023-02-01T15:08:54;10.40;99.90
20125;DHT22;10223;50.862;4.360;2023-02-01T15:11:23;10.40;99.90
20125;DHT22;10223;50.862;4.360;2023-02-01T15:13:51;10.30;99.90
20125;DHT22;10223;50.862;4.360;2023-02-01T15:16:21;10.30;99.90
20125;DHT22;10223;50.862;4.360;2023-02-01T15:18:48;10.30;99.90
20125;DHT22;10223;50.862;4.360;2023-02-01T15:21:19;10.10;99.90
20125;DHT22;10223;50.862;4.360;2023-02-01T15:23:47;10.10;99.90
20125;DHT22;10223;50.862;4.360;2023-02-01T15:26:26;10.10;99.90
20125;DHT22;10223;50.862;4.360;2023-02-01T15:28:53;10.10;99.90
20125;DHT22;10223;50.862;4.360;2023-02-01T15:31:33;10.00;99.90
20125;DHT22;10223;50.862;4.360;2023-02-01T15:34:01;10.00;99.90
20125;DHT22;10223;50.862;4.360;2023-02-01T15:36:29;10.00;99.90
20125;DHT22;10223;50.862;4.360;2023-02-01T15:39:17;9.90;99.90
20125;DHT22;10223;50.862;4.360;2023-02-01T15:41:50;9.90;99.90
20125;DHT22;10223;50.862;4.360;2023-02-01T15:44:22;10.00;99.90
20125;DHT22;10223;50.862;4.360;2023-02-01T15:46:54;10.00;99.90
20125;DHT22;10223;50.862;4.360;2023-02-01T15:49:26;9.90;99.90
20125;DHT22;10223;50.862;4.360;2023-02-01T15:51:56;10.00;99.90
20125;DHT22;10223;50.862;4.360;2023-02-01T15:54:26;9.90;99.90
20125;DHT22;10223;50.862;4.360;2023-02-01T15:56:58;9.90;99.90
20125;DHT22;10223;50.862;4.360;2023-02-01T15:59:32;9.90;99.90
20125;DHT22;10223;50.862;4.360;2023-02-01T16:02:00;9.90;99.90
20125;DHT22;10223;50.862;4.360;2023-02-01T16:04:29;9.90;99.90
20125;DHT22;10223;50.862;4.360;2023-02-01T16:06:59;9.90;99.90
20125;DHT22;10223;50.862;4.360;2023-02-01T16:09:36;9.90;99.90
20125;DHT22;10223;50.862;4.360;2023-02-01T16:12:26;9.80;99.90
20125;DHT22;10223;50.862;4.360;2023-02-01T16:14:55;9.80;99.90
20125;DHT22;10223;50.862;4.360;2023-02-01T16:17:22;9.80;99.90
20125;DHT22;10223;50.862;4.360;2023-02-01T16:19:49;9.80;99.90
20125;DHT22;10223;50.862;4.360;2023-02-01T16:22:18;9.80;99.90
20125;DHT22;10223;50.862;4.360;2023-02-01T16:24:45;9.70;99.90
20125;DHT22;10223;50.862;4.360;2023-02-01T16:27:12;9.80;99.90
20125;DHT22;10223;50.862;4.360;2023-02-01T16:29:38;9.70;99.90
20125;DHT22;10223;50.862;4.360;2023-02-01T16:32:06;9.80;99.90